Time;durP1;ratioP1;P1;durP2;ratioP2;P2;SDS_P1;SDS_P2;PMS_P1;PMS_P2;Temp;Humidity;BMP_temperature;BMP_pressure;BME280_temperature;BME280_humidity;BME280_pressure;Samples;Min_cycle;Max_cycle;Signal;HPM_P1;HPM_P2
2022/05/31 15:57:43;;;;;;;9.50;5.50;;;;;;;17.87;50.58;101062.66;5062037;27;1995213;-66
2022/05/31 16:00:12;;;;;;;7.70;5.80;;;;;;;17.87;49.49;101057.28;5088747;28;20062;-66
2022/05/31 16:02:38;;;;;;;7.97;4.80;;;;;;;17.86;48.82;101059.13;5107772;28;20273;-66
2022/05/31 16:05:04;;;;;;;6.28;4.45;;;;;;;17.82;47.77;101055.00;5090117;28;20061;-66
2022/05/31 16:07:36;;;;;;;7.18;5.28;;;;;;;17.84;48.71;101046.78;5107414;28;20055;-66
2022/05/31 16:10:02;;;;;;;7.38;4.53;;;;;;;17.95;48.38;101051.22;5090745;28;20032;-67
2022/05/31 16:12:31;;;;;;;5.28;4.45;;;;;;;17.91;46.13;101051.50;5094472;28;20771;-66
2022/05/31 16:14:58;;;;;;;5.07;4.13;;;;;;;17.95;46.34;101046.66;5106903;28;20039;-66
2022/05/31 16:17:24;;;;;;;6.93;3.93;;;;;;;17.92;47.99;101052.34;5107844;28;20031;-66
2022/05/31 16:19:50;;;;;;;6.90;4.88;;;;;;;17.89;45.94;101052.63;5110039;28;20682;-64
2022/05/31 16:22:18;;;;;;;8.10;5.20;;;;;;;17.77;49.70;101048.31;5072060;28;20027;-64
2022/05/31 16:24:45;;;;;;;7.00;4.65;;;;;;;17.71;48.70;101041.66;5108011;28;20023;-64
2022/05/31 16:27:13;;;;;;;7.72;5.10;;;;;;;17.88;47.63;101045.50;5110049;28;20020;-64
2022/05/31 16:29:39;;;;;;;5.40;4.88;;;;;;;17.91;51.53;101047.91;5098835;28;20433;-64
2022/05/31 16:32:08;;;;;;;7.32;5.13;;;;;;;17.99;47.16;101048.09;5117623;28;20035;-64
2022/05/31 16:34:36;;;;;;;8.35;5.68;;;;;;;17.95;51.32;101045.81;5105174;28;20483;-64
2022/05/31 16:41:10;;;;;;;7.55;4.45;;;;;;;17.93;47.44;101044.09;5088929;28;20458;-64
2022/05/31 16:42:33;;;;;;;5.57;4.30;;;;;;;17.77;46.69;101048.31;5089513;28;20046;-64
2022/05/31 16:44:58;;;;;;;5.68;4.90;;;;;;;17.59;48.21;101058.88;5078855;28;20035;-64
2022/05/31 16:47:24;;;;;;;5.28;4.78;;;;;;;17.45;49.43;101057.41;5083358;28;20027;-64
2022/05/31 16:49:53;;;;;;;6.70;4.30;;;;;;;17.47;49.92;101064.38;5072012;28;20428;-64
2022/05/31 16:52:23;;;;;;;6.15;4.00;;;;;;;17.37;48.97;101065.31;5071426;28;20024;-64
2022/05/31 16:54:49;;;;;;;5.13;4.50;;;;;;;17.38;51.55;101083.13;5107060;28;20111;-64
2022/05/31 16:57:15;;;;;;;5.25;4.35;;;;;;;17.35;52.63;101099.53;5072025;28;20575;-64
2022/05/31 16:59:43;;;;;;;7.38;4.82;;;;;;;17.06;53.66;101115.50;5089204;28;20036;-64
2022/05/31 17:02:11;;;;;;;7.25;5.63;;;;;;;17.13;55.67;101143.59;5089438;28;20446;-67
2022/05/31 17:04:36;;;;;;;9.82;7.13;;;;;;;16.80;55.97;101161.59;5107356;28;20417;-67
2022/05/31 17:15:29;;;;;;;11.27;8.68;;;;;;;14.96;68.59;101206.59;5093594;28;20077;-67
2022/05/31 17:17:56;;;;;;;9.48;8.23;;;;;;;14.69;69.65;101208.69;5093502;28;20463;-67
2022/05/31 17:20:26;;;;;;;10.02;8.38;;;;;;;14.44;71.65;101226.56;5093436;28;20028;-67
2022/05/31 17:23:00;;;;;;;10.15;9.15;;;;;;;14.16;72.19;101225.00;5092157;28;20028;-67
2022/05/31 17:25:41;;;;;;;10.00;8.75;;;;;;;14.32;73.70;101238.13;5074179;28;20764;-67
2022/05/31 17:28:09;;;;;;;9.95;9.15;;;;;;;14.40;73.82;101237.56;5092693;28;20031;-67
2022/05/31 17:30:35;;;;;;;9.65;8.75;;;;;;;14.53;74.71;101215.19;5093740;28;20501;-67
2022/05/31 17:33:13;;;;;;;10.55;9.55;;;;;;;14.59;73.15;101175.53;5072650;28;20074;-67
2022/05/31 17:35:40;;;;;;;13.27;9.05;;;;;;;14.49;73.58;101176.19;5092948;28;20056;-67
2022/05/31 17:38:10;;;;;;;12.20;9.98;;;;;;;14.47;73.35;101187.97;5074369;28;20028;-67
2022/05/31 17:40:36;;;;;;;11.02;9.60;;;;;;;14.45;75.62;101204.16;5091600;28;20035;-67
2022/05/31 17:43:01;;;;;;;10.57;9.57;;;;;;;14.54;76.43;101194.63;5073029;28;20032;-67
2022/05/31 17:45:26;;;;;;;10.10;8.75;;;;;;;14.63;74.48;101169.00;5056681;28;20093;-67
2022/05/31 17:47:52;;;;;;;10.73;9.00;;;;;;;14.67;75.07;101168.63;5074330;28;20028;-67
2022/05/31 17:50:18;;;;;;;9.40;8.50;;;;;;;14.83;73.50;101170.19;5092070;28;20047;-67
2022/05/31 17:52:44;;;;;;;10.60;8.20;;;;;;;14.86;73.38;101162.75;5092433;28;20085;-66
2022/05/31 17:55:10;;;;;;;9.30;8.35;;;;;;;14.77;72.47;101158.97;5092287;28;20032;-67
2022/05/31 17:57:36;;;;;;;8.80;8.00;;;;;;;14.71;71.91;101163.94;5090826;28;20032;-66
2022/05/31 18:00:04;;;;;;;11.20;9.35;;;;;;;14.56;74.15;101176.66;5092607;28;20051;-66
2022/05/31 18:02:30;;;;;;;11.10;9.20;;;;;;;14.60;74.39;101183.47;5092687;28;20038;-67
2022/05/31 18:04:58;;;;;;;11.27;9.60;;;;;;;14.62;73.76;101177.97;5067574;28;20107;-67
2022/05/31 18:07:24;;;;;;;9.63;8.70;;;;;;;14.59;72.34;101176.41;5072830;28;20028;-67
2022/05/31 18:09:50;;;;;;;9.48;8.45;;;;;;;14.64;73.98;101170.69;5089037;28;20016;-67
2022/05/31 18:12:16;;;;;;;10.02;8.00;;;;;;;14.75;73.29;101170.75;5090155;28;20656;-67
2022/05/31 18:14:42;;;;;;;7.57;6.90;;;;;;;14.82;72.33;101174.66;5075249;28;20459;-67
2022/05/31 18:17:08;;;;;;;8.02;7.15;;;;;;;14.65;71.86;101170.59;5057248;28;20067;-67
2022/05/31 18:19:35;;;;;;;8.35;6.68;;;;;;;14.69;71.05;101163.19;5091437;28;20035;-67
2022/05/31 18:22:05;;;;;;;7.32;6.45;;;;;;;14.69;73.23;101174.75;5086451;28;20020;-69
2022/05/31 18:24:37;;;;;;;8.30;7.30;;;;;;;14.65;72.98;101175.94;5094968;28;20028;-69
2022/05/31 18:27:07;;;;;;;7.43;6.82;;;;;;;14.73;70.30;101170.00;5092502;28;20016;-69
2022/05/31 18:29:38;;;;;;;7.43;6.82;;;;;;;14.67;72.70;101182.03;5090244;28;20561;-69
2022/05/31 18:32:12;;;;;;;8.02;7.22;;;;;;;14.72;70.43;101187.91;5091871;28;20031;-69
2022/05/31 18:34:40;;;;;;;8.15;7.03;;;;;;;14.76;71.27;101186.72;5090050;28;20401;-69
2022/05/31 18:42:04;;;;;;;7.80;7.00;;;;;;;14.73;70.19;101164.66;5091541;28;20028;-68
2022/05/31 18:44:31;;;;;;;8.18;6.90;;;;;;;14.83;69.86;101173.72;5074249;28;20032;-68
2022/05/31 18:46:58;;;;;;;11.80;7.97;;;;;;;14.63;72.20;101177.03;5102247;28;20475;-68
2022/05/31 18:49:23;;;;;;;8.57;7.78;;;;;;;14.50;71.72;101180.59;5072977;28;20499;-68
2022/05/31 18:51:49;;;;;;;8.55;7.82;;;;;;;14.62;73.29;101180.66;5091968;28;20129;-68
2022/05/31 18:54:14;;;;;;;8.10;7.40;;;;;;;14.62;72.22;101184.22;5091313;28;20093;-68
2022/05/31 18:56:42;;;;;;;7.78;6.97;;;;;;;14.57;69.85;101197.06;5072762;28;20071;-68
2022/05/31 18:59:09;;;;;;;8.68;7.88;;;;;;;14.57;73.65;101196.22;5091892;28;20053;-68
2022/05/31 19:01:39;;;;;;;8.52;7.63;;;;;;;14.51;71.31;101189.47;5091556;28;20085;-68
2022/05/31 19:04:04;;;;;;;8.50;7.80;;;;;;;14.61;72.45;101193.19;5091248;28;20027;-68
2022/05/31 19:06:33;;;;;;;8.70;7.90;;;;;;;14.58;73.43;101197.94;5072439;28;20036;-68
2022/05/31 19:08:58;;;;;;;9.02;8.27;;;;;;;14.41;74.08;101197.34;5091779;28;20073;-68
2022/05/31 19:11:27;;;;;;;8.00;7.20;;;;;;;14.43;73.13;101202.56;5090751;28;20514;-68
2022/05/31 19:13:53;;;;;;;8.20;7.50;;;;;;;14.33;72.29;101191.69;5074098;28;20118;-68
2022/05/31 19:16:19;;;;;;;8.60;7.88;;;;;;;14.31;72.16;101207.00;5088824;28;20065;-68
2022/05/31 19:18:47;;;;;;;9.20;8.40;;;;;;;14.26;73.61;101203.78;5074109;28;20028;-68
2022/05/31 19:21:26;;;;;;;8.80;8.07;;;;;;;14.31;72.63;101204.31;5091211;28;20019;-68
2022/05/31 19:23:52;;;;;;;8.95;8.18;;;;;;;14.24;73.13;101205.75;5089761;28;20454;-68
2022/05/31 19:26:21;;;;;;;8.95;8.00;;;;;;;14.15;73.15;101203.72;5072678;28;20111;-68
2022/05/31 19:28:49;;;;;;;9.48;8.52;;;;;;;14.11;74.14;101211.09;5090860;28;20055;-66
2022/05/31 19:31:20;;;;;;;8.48;7.68;;;;;;;14.19;72.10;101205.22;5078669;28;20027;-66
2022/05/31 19:33:55;;;;;;;9.15;8.35;;;;;;;14.03;73.50;101206.31;5092936;28;20119;-66
2022/05/31 19:36:21;;;;;;;8.10;7.30;;;;;;;14.09;72.84;101205.03;5089225;28;20115;-66
2022/05/31 19:38:49;;;;;;;8.77;7.93;;;;;;;14.11;72.04;101211.09;5090412;28;20069;-64
2022/05/31 19:41:17;;;;;;;8.43;7.63;;;;;;;14.08;72.31;101214.84;5090500;28;20059;-66
2022/05/31 19:43:44;;;;;;;9.55;8.65;;;;;;;14.02;74.18;101220.66;5090222;28;20028;-66
2022/05/31 19:46:09;;;;;;;9.35;8.43;;;;;;;14.04;72.66;101223.22;5102100;28;20098;-66
2022/05/31 19:48:37;;;;;;;10.02;8.38;;;;;;;13.91;73.61;101235.75;5110980;28;20127;-66
2022/05/31 19:51:03;;;;;;;9.75;8.85;;;;;;;13.93;72.44;101241.84;5101251;28;20029;-66
2022/05/31 19:53:31;;;;;;;9.63;8.73;;;;;;;13.95;72.74;101245.28;5090642;28;20111;-66
2022/05/31 19:56:05;;;;;;;10.63;9.52;;;;;;;13.75;72.65;101239.50;5071970;28;20040;-66
2022/05/31 19:58:33;;;;;;;11.18;10.10;;;;;;;13.75;73.11;101238.66;5088286;28;20040;-64
2022/05/31 20:01:03;;;;;;;10.97;9.87;;;;;;;13.75;72.76;101241.31;5072722;28;20040;-65
2022/05/31 20:03:29;;;;;;;;;;;;;;;14.00;70.89;101254.69;5091154;28;20050;-65
2022/05/31 20:05:57;;;;;;;10.73;9.75;;;;;;;13.58;73.25;101253.19;5072014;28;19916;-64
2022/05/31 20:10:02;;;;;;;10.88;9.82;;;;;;;13.66;74.03;101261.53;5089284;28;20555;-65
2022/05/31 20:11:09;;;;;;;10.30;9.40;;;;;;;13.60;73.47;101265.50;5074915;28;20445;-65
2022/05/31 20:13:35;;;;;;;9.73;8.82;;;;;;;13.57;72.61;101272.88;5071615;28;20036;-65
2022/05/31 20:16:00;;;;;;;10.57;9.48;;;;;;;13.54;72.68;101273.94;5055516;28;20069;-64
2022/05/31 20:21:07;;;;;;;10.10;9.07;;;;;;;13.36;73.21;101272.53;5072848;28;20032;-64
2022/05/31 20:23:33;;;;;;;10.45;9.50;;;;;;;13.38;72.71;101282.16;5072532;28;20035;-64
2022/05/31 20:26:02;;;;;;;10.80;9.73;;;;;;;13.36;73.45;101278.72;5073086;28;20391;-64
2022/05/31 20:28:31;;;;;;;10.20;9.32;;;;;;;13.31;72.91;101283.50;5088282;28;20078;-64
2022/05/31 20:30:56;;;;;;;11.07;10.10;;;;;;;13.32;73.88;101287.03;5073686;28;20019;-64
2022/05/31 20:33:22;;;;;;;10.70;9.80;;;;;;;13.28;73.17;101286.38;5072380;28;20398;-64
2022/05/31 20:35:51;;;;;;;10.20;9.27;;;;;;;13.03;73.17;101260.44;5063131;28;20059;-64
2022/05/31 20:38:42;;;;;;;10.38;9.48;;;;;;;13.30;72.54;101280.97;5088523;28;20043;-64
2022/05/31 20:41:12;;;;;;;11.30;10.25;;;;;;;13.04;74.29;101278.19;5081758;28;20032;-65
2022/05/31 20:43:38;;;;;;;;;;;;;;;13.35;71.78;101294.84;5089527;28;20019;-64
2022/05/31 20:46:06;;;;;;;11.18;10.15;;;;;;;13.17;73.50;101283.53;5112692;28;20529;-65
2022/05/31 20:48:34;;;;;;;11.63;10.43;;;;;;;13.01;74.68;101272.19;5092850;28;20080;-64
2022/05/31 20:51:03;;;;;;;10.80;9.88;;;;;;;13.02;74.24;101282.75;5092712;28;20028;-64
2022/05/31 20:53:34;;;;;;;10.52;9.50;;;;;;;12.97;73.45;101282.22;5094027;28;20028;-64
2022/05/31 20:56:05;;;;;;;11.05;10.05;;;;;;;13.00;73.29;101289.16;5075201;28;20503;-64
2022/05/31 20:58:31;;;;;;;11.00;9.90;;;;;;;12.90;73.70;101288.91;5096826;28;20386;-64
2022/05/31 21:00:56;;;;;;;11.93;10.80;;;;;;;12.87;74.09;101283.78;5106203;28;20031;-64
2022/05/31 21:03:22;;;;;;;11.95;10.85;;;;;;;12.88;74.09;101275.69;5094032;28;20032;-65
2022/05/31 21:05:48;;;;;;;12.27;11.27;;;;;;;12.71;74.20;101291.94;5075106;28;20016;-64
2022/05/31 21:08:18;;;;;;;11.75;10.75;;;;;;;12.76;73.53;101295.13;5090638;28;20038;-64
2022/05/31 21:10:45;;;;;;;11.88;10.80;;;;;;;12.69;74.36;101291.16;5100957;28;20103;-64
2022/05/31 21:13:20;;;;;;;13.65;12.40;;;;;;;12.71;74.39;101295.47;5093107;28;20024;-64
2022/05/31 21:15:47;;;;;;;12.57;11.40;;;;;;;12.65;74.23;101298.53;5093616;28;20020;-64
2022/05/31 21:18:13;;;;;;;13.02;11.93;;;;;;;12.65;74.49;101295.00;5075221;28;20110;-64
2022/05/31 21:20:42;;;;;;;12.05;11.10;;;;;;;12.58;73.96;101294.53;5075892;28;20386;-65
2022/05/31 21:23:25;;;;;;;12.95;11.85;;;;;;;12.55;74.19;101289.38;5033822;28;20030;-64
2022/05/31 21:25:50;;;;;;;13.90;12.70;;;;;;;12.45;74.97;101291.78;5032577;28;20037;-65
2022/05/31 21:28:19;;;;;;;13.45;12.15;;;;;;;12.46;74.74;101290.81;5031095;28;20083;-64
2022/05/31 21:30:44;;;;;;;13.02;11.82;;;;;;;12.40;74.31;101290.38;5034765;28;20040;-64
2022/05/31 21:33:12;;;;;;;14.15;12.95;;;;;;;12.47;75.76;101294.34;5047899;28;20049;-64
2022/05/31 21:35:39;;;;;;;13.48;12.27;;;;;;;12.38;74.92;101293.16;5049068;28;20024;-64
2022/05/31 21:38:05;;;;;;;14.00;12.80;;;;;;;12.45;74.80;101301.63;5047500;28;20045;-64
2022/05/31 21:43:16;;;;;;;15.57;14.07;;;;;;;12.37;75.79;101296.75;5050425;28;20064;-64
2022/05/31 21:45:41;;;;;;;14.75;13.35;;;;;;;12.35;76.15;101297.81;5050794;28;20033;-64
2022/05/31 21:48:08;;;;;;;15.75;14.25;;;;;;;12.33;76.58;101300.59;5047866;28;20511;-65
2022/05/31 21:51:04;;;;;;;16.13;14.73;;;;;;;12.54;75.40;101303.69;5016893;28;20064;-64
2022/05/31 21:53:36;;;;;;;14.70;13.38;;;;;;;12.46;75.56;101301.50;5052369;28;20562;-64
2022/05/31 21:56:09;;;;;;;15.75;14.25;;;;;;;12.44;76.09;101305.22;5092063;28;20028;-64
2022/05/31 21:58:38;;;;;;;17.55;15.95;;;;;;;12.38;77.13;101309.16;5092549;28;20367;-65
2022/05/31 22:01:07;;;;;;;18.05;16.35;;;;;;;12.56;76.46;101311.59;5073934;28;20032;-64
2022/05/31 22:03:33;;;;;;;18.30;16.63;;;;;;;12.47;77.30;101294.34;5074479;28;20123;-64
2022/05/31 22:06:02;;;;;;;18.65;16.92;;;;;;;12.48;76.94;101290.75;5089950;28;20020;-64
2022/05/31 22:08:29;;;;;;;18.92;16.40;;;;;;;12.50;77.09;101295.03;5090912;28;20403;-64
2022/05/31 22:10:56;;;;;;;18.48;16.75;;;;;;;12.48;77.71;101290.75;5096008;28;20024;-63
2022/05/31 22:13:24;;;;;;;21.50;16.80;;;;;;;12.39;77.60;101281.53;5074285;28;20031;-64
2022/05/31 22:15:50;;;;;;;18.30;16.42;;;;;;;12.50;77.91;101294.19;5073772;28;20020;-63
2022/05/31 22:18:18;;;;;;;18.38;16.67;;;;;;;12.47;77.89;101289.00;5075034;28;20165;-64
2022/05/31 22:20:44;;;;;;;18.30;16.60;;;;;;;12.57;77.81;101287.47;5099237;28;20107;-63
2022/05/31 22:23:09;;;;;;;18.95;17.02;;;;;;;12.55;77.68;101291.19;5094913;28;20062;-64
2022/05/31 22:25:35;;;;;;;17.17;15.48;;;;;;;12.58;77.47;101293.66;5087382;28;20070;-64
2022/05/31 22:28:01;;;;;;;19.80;17.75;;;;;;;12.53;77.26;101287.75;5091085;28;20020;-64
2022/05/31 22:30:32;;;;;;;18.83;16.95;;;;;;;12.44;78.01;101282.09;5092911;28;20107;-64
2022/05/31 22:32:58;;;;;;;19.10;17.17;;;;;;;12.48;77.60;101280.94;5092978;28;20020;-64
2022/05/31 22:35:25;;;;;;;18.15;16.45;;;;;;;12.43;78.22;101268.84;5075606;28;20028;-63
2022/05/31 22:37:59;;;;;;;19.42;17.40;;;;;;;12.48;78.96;101277.41;5113045;28;20027;-64
2022/05/31 22:40:30;;;;;;;18.17;16.38;;;;;;;12.53;77.94;101279.75;5080711;28;20056;-64
2022/05/31 22:43:01;;;;;;;19.83;17.92;;;;;;;12.39;78.47;101270.00;5072740;28;20020;-64
2022/05/31 22:45:27;;;;;;;18.63;16.77;;;;;;;12.46;78.13;101273.97;5092200;28;20081;-64
2022/05/31 22:47:53;;;;;;;18.38;16.50;;;;;;;12.38;78.36;101278.94;5091832;28;20110;-63
2022/05/31 22:50:24;;;;;;;18.42;16.85;;;;;;;12.32;78.11;101280.19;5091519;28;20103;-64
2022/05/31 22:52:51;;;;;;;18.67;16.80;;;;;;;12.26;78.16;101276.13;5090219;28;20523;-64
2022/05/31 22:55:17;;;;;;;18.30;16.38;;;;;;;12.20;77.78;101271.13;5091819;28;20153;-64
2022/05/31 22:57:44;;;;;;;18.40;16.70;;;;;;;12.11;77.93;101265.53;5073795;28;20047;-63
2022/05/31 23:00:18;;;;;;;18.10;16.50;;;;;;;12.15;78.00;101275.94;5091465;28;20027;-64
2022/05/31 23:02:48;;;;;;;18.45;16.70;;;;;;;11.83;77.84;101232.59;5091355;28;20069;-63
2022/05/31 23:05:15;;;;;;;;;;;;;;;12.24;76.29;101267.34;5093051;28;20471;-64
2022/05/31 23:07:41;;;;;;;17.67;15.98;;;;;;;12.03;77.65;101250.91;5090416;28;19912;-64
2022/05/31 23:10:07;;;;;;;18.77;16.52;;;;;;;12.03;77.66;101256.22;5089332;28;20031;-64
2022/05/31 23:12:33;;;;;;;18.40;16.27;;;;;;;12.00;77.42;101251.09;5054774;28;20036;-64
2022/05/31 23:14:58;;;;;;;17.58;15.98;;;;;;;11.93;77.16;101259.56;5090846;28;20708;-63
2022/05/31 23:17:24;;;;;;;19.63;16.33;;;;;;;11.83;78.01;101249.44;5090364;28;20479;-64
2022/05/31 23:19:51;;;;;;;20.27;17.60;;;;;;;11.88;77.61;101256.31;5073327;28;20093;-64
2022/05/31 23:25:03;;;;;;;19.67;17.63;;;;;;;11.69;77.75;101256.56;5096747;28;20089;-64
2022/05/31 23:27:31;;;;;;;18.23;15.63;;;;;;;11.69;77.79;101253.91;5093892;28;20055;-64
2022/05/31 23:29:58;;;;;;;17.88;16.08;;;;;;;11.68;78.34;101252.19;5073391;28;20023;-64
2022/05/31 23:32:27;;;;;;;18.08;16.27;;;;;;;11.52;78.21;101246.94;5091349;28;20028;-64
2022/05/31 23:35:01;;;;;;;19.00;16.83;;;;;;;11.65;77.31;101247.03;5091379;28;20039;-64
2022/05/31 23:37:28;;;;;;;18.60;16.70;;;;;;;11.66;77.43;101249.59;5091394;28;20055;-64
2022/05/31 23:39:56;;;;;;;18.27;16.58;;;;;;;11.57;77.52;101252.84;5091876;28;20363;-65
2022/05/31 23:42:22;;;;;;;19.92;17.83;;;;;;;11.57;77.76;101248.38;5088659;28;20502;-64
2022/05/31 23:44:48;;;;;;;20.00;17.92;;;;;;;11.60;77.64;101253.50;5091389;28;20024;-64
2022/05/31 23:47:16;;;;;;;19.52;17.63;;;;;;;11.36;78.69;101239.88;5072939;28;20023;-64
2022/05/31 23:49:41;;;;;;;19.15;17.35;;;;;;;11.47;78.21;101247.22;5041166;28;20043;-64
2022/05/31 23:52:10;;;;;;;19.00;17.20;;;;;;;11.39;78.63;101244.16;5053958;28;20044;-65
2022/05/31 23:54:36;;;;;;;19.48;17.58;;;;;;;11.31;78.57;101241.09;5073544;28;20036;-64
2022/05/31 23:57:03;;;;;;;20.20;18.17;;;;;;;11.29;79.15;101238.50;5071825;28;20044;-64
2022/05/31 23:59:28;;;;;;;19.58;17.65;;;;;;;11.22;79.18;101244.31;5056634;28;20036;-64
